sensor_id;sensor_type;location;lat;lon;timestamp;P1;durP1;ratioP1;P2;durP2;ratioP2
78787;SDS011;68131;52.508;5.502;2023-04-01T00:01:47;10.32;;;4.70;;
78787;SDS011;68131;52.508;5.502;2023-04-01T00:04:16;11.02;;;4.20;;
78787;SDS011;68131;52.508;5.502;2023-04-01T00:06:46;8.52;;;4.30;;
78787;SDS011;68131;52.508;5.502;2023-04-01T00:09:15;9.43;;;5.32;;
78787;SDS011;68131;52.508;5.502;2023-04-01T00:11:47;11.40;;;5.65;;
78787;SDS011;68131;52.508;5.502;2023-04-01T00:14:16;12.52;;;5.95;;
78787;SDS011;68131;52.508;5.502;2023-04-01T00:16:45;11.23;;;5.28;;
78787;SDS011;68131;52.508;5.502;2023-04-01T00:19:14;13.18;;;5.35;;
78787;SDS011;68131;52.508;5.502;2023-04-01T00:21:43;13.18;;;5.82;;
78787;SDS011;68131;52.508;5.502;2023-04-01T00:24:13;12.18;;;5.65;;
78787;SDS011;68131;52.508;5.502;2023-04-01T00:26:43;12.13;;;4.95;;
78787;SDS011;68131;52.508;5.502;2023-04-01T00:29:15;15.15;;;5.95;;
78787;SDS011;68131;52.508;5.502;2023-04-01T00:31:44;13.27;;;6.05;;
78787;SDS011;68131;52.508;5.502;2023-04-01T00:34:14;13.02;;;5.63;;
78787;SDS011;68131;52.508;5.502;2023-04-01T00:36:43;9.75;;;5.57;;
78787;SDS011;68131;52.508;5.502;2023-04-01T00:39:12;13.65;;;6.20;;
78787;SDS011;68131;52.508;5.502;2023-04-01T00:41:42;11.40;;;5.32;;
78787;SDS011;68131;52.508;5.502;2023-04-01T00:44:12;11.02;;;6.18;;
78787;SDS011;68131;52.508;5.502;2023-04-01T00:46:47;13.55;;;5.75;;
78787;SDS011;68131;52.508;5.502;2023-04-01T00:49:16;13.68;;;6.03;;
78787;SDS011;68131;52.508;5.502;2023-04-01T00:51:50;15.98;;;6.82;;
78787;SDS011;68131;52.508;5.502;2023-04-01T00:54:21;13.52;;;6.00;;
78787;SDS011;68131;52.508;5.502;2023-04-01T00:56:54;12.57;;;6.38;;
78787;SDS011;68131;52.508;5.502;2023-04-01T00:59:29;12.88;;;5.88;;
78787;SDS011;68131;52.508;5.502;2023-04-01T01:02:02;12.68;;;5.40;;
78787;SDS011;68131;52.508;5.502;2023-04-01T01:04:34;16.13;;;6.78;;
78787;SDS011;68131;52.508;5.502;2023-04-01T01:07:07;21.13;;;6.15;;
78787;SDS011;68131;52.508;5.502;2023-04-01T01:09:48;14.65;;;5.55;;
78787;SDS011;68131;52.508;5.502;2023-04-01T01:12:24;12.35;;;7.15;;
78787;SDS011;68131;52.508;5.502;2023-04-01T01:15:03;13.25;;;5.47;;
78787;SDS011;68131;52.508;5.502;2023-04-01T01:17:43;15.25;;;5.13;;
78787;SDS011;68131;52.508;5.502;2023-04-01T01:26:54;11.02;;;4.70;;
78787;SDS011;68131;52.508;5.502;2023-04-01T01:32:11;16.13;;;5.25;;
78787;SDS011;68131;52.508;5.502;2023-04-01T01:34:49;12.32;;;4.60;;
78787;SDS011;68131;52.508;5.502;2023-04-01T01:37:27;9.85;;;4.53;;
78787;SDS011;68131;52.508;5.502;2023-04-01T01:39:59;17.48;;;5.53;;
78787;SDS011;68131;52.508;5.502;2023-04-01T01:45:04;9.98;;;5.30;;
78787;SDS011;68131;52.508;5.502;2023-04-01T01:47:36;14.57;;;6.03;;
78787;SDS011;68131;52.508;5.502;2023-04-01T01:50:07;12.63;;;4.55;;
78787;SDS011;68131;52.508;5.502;2023-04-01T01:52:40;14.13;;;5.75;;
78787;SDS011;68131;52.508;5.502;2023-04-01T01:55:23;9.65;;;4.85;;
78787;SDS011;68131;52.508;5.502;2023-04-01T01:57:57;9.23;;;4.15;;
78787;SDS011;68131;52.508;5.502;2023-04-01T02:00:29;14.63;;;4.90;;
78787;SDS011;68131;52.508;5.502;2023-04-01T02:02:59;12.98;;;4.95;;
78787;SDS011;68131;52.508;5.502;2023-04-01T02:05:30;9.38;;;4.22;;
78787;SDS011;68131;52.508;5.502;2023-04-01T02:08:09;11.35;;;4.00;;
78787;SDS011;68131;52.508;5.502;2023-04-01T02:10:43;10.90;;;3.78;;
78787;SDS011;68131;52.508;5.502;2023-04-01T02:13:21;8.65;;;3.67;;
78787;SDS011;68131;52.508;5.502;2023-04-01T02:15:55;7.45;;;4.38;;
78787;SDS011;68131;52.508;5.502;2023-04-01T02:18:28;6.03;;;2.60;;
78787;SDS011;68131;52.508;5.502;2023-04-01T02:21:03;4.43;;;2.63;;
78787;SDS011;68131;52.508;5.502;2023-04-01T02:23:36;9.23;;;3.33;;
78787;SDS011;68131;52.508;5.502;2023-04-01T02:26:06;10.10;;;3.33;;
78787;SDS011;68131;52.508;5.502;2023-04-01T02:28:37;6.40;;;3.83;;
78787;SDS011;68131;52.508;5.502;2023-04-01T02:31:08;9.80;;;3.40;;
78787;SDS011;68131;52.508;5.502;2023-04-01T02:33:39;7.43;;;3.33;;
78787;SDS011;68131;52.508;5.502;2023-04-01T02:36:10;10.98;;;3.35;;
78787;SDS011;68131;52.508;5.502;2023-04-01T02:38:43;7.43;;;3.67;;
78787;SDS011;68131;52.508;5.502;2023-04-01T02:41:13;11.18;;;3.75;;
78787;SDS011;68131;52.508;5.502;2023-04-01T02:43:42;10.82;;;3.90;;
78787;SDS011;68131;52.508;5.502;2023-04-01T02:46:11;7.40;;;3.72;;
78787;SDS011;68131;52.508;5.502;2023-04-01T02:48:41;7.85;;;3.95;;
78787;SDS011;68131;52.508;5.502;2023-04-01T02:51:10;9.32;;;4.00;;
78787;SDS011;68131;52.508;5.502;2023-04-01T02:53:39;6.68;;;3.35;;
78787;SDS011;68131;52.508;5.502;2023-04-01T02:56:10;11.20;;;4.28;;
78787;SDS011;68131;52.508;5.502;2023-04-01T02:58:40;6.40;;;3.40;;
78787;SDS011;68131;52.508;5.502;2023-04-01T03:01:09;9.70;;;3.85;;
78787;SDS011;68131;52.508;5.502;2023-04-01T03:03:38;6.30;;;3.13;;
78787;SDS011;68131;52.508;5.502;2023-04-01T03:06:07;9.00;;;2.78;;
78787;SDS011;68131;52.508;5.502;2023-04-01T03:08:38;9.18;;;2.97;;
78787;SDS011;68131;52.508;5.502;2023-04-01T03:11:11;8.95;;;3.47;;
78787;SDS011;68131;52.508;5.502;2023-04-01T03:13:40;6.03;;;2.80;;
78787;SDS011;68131;52.508;5.502;2023-04-01T03:16:10;6.20;;;3.00;;
78787;SDS011;68131;52.508;5.502;2023-04-01T03:18:39;6.85;;;2.90;;
78787;SDS011;68131;52.508;5.502;2023-04-01T03:21:13;8.05;;;3.15;;
78787;SDS011;68131;52.508;5.502;2023-04-01T03:23:43;8.55;;;2.88;;
78787;SDS011;68131;52.508;5.502;2023-04-01T03:26:15;7.05;;;2.50;;
78787;SDS011;68131;52.508;5.502;2023-04-01T03:28:44;6.80;;;2.40;;
78787;SDS011;68131;52.508;5.502;2023-04-01T03:31:14;6.35;;;2.15;;
78787;SDS011;68131;52.508;5.502;2023-04-01T03:33:49;7.47;;;2.75;;
78787;SDS011;68131;52.508;5.502;2023-04-01T03:36:18;5.00;;;1.88;;
78787;SDS011;68131;52.508;5.502;2023-04-01T03:38:48;5.47;;;2.22;;
78787;SDS011;68131;52.508;5.502;2023-04-01T03:41:25;8.38;;;2.55;;
78787;SDS011;68131;52.508;5.502;2023-04-01T03:43:56;6.25;;;2.50;;
78787;SDS011;68131;52.508;5.502;2023-04-01T03:46:25;6.03;;;2.40;;
78787;SDS011;68131;52.508;5.502;2023-04-01T03:48:54;7.72;;;3.13;;
78787;SDS011;68131;52.508;5.502;2023-04-01T03:51:23;8.18;;;2.67;;
78787;SDS011;68131;52.508;5.502;2023-04-01T03:53:52;4.70;;;2.38;;
78787;SDS011;68131;52.508;5.502;2023-04-01T03:56:22;7.45;;;2.60;;
78787;SDS011;68131;52.508;5.502;2023-04-01T03:58:53;8.95;;;2.60;;
78787;SDS011;68131;52.508;5.502;2023-04-01T04:01:22;6.07;;;2.47;;
78787;SDS011;68131;52.508;5.502;2023-04-01T04:03:55;6.70;;;2.58;;
78787;SDS011;68131;52.508;5.502;2023-04-01T04:06:25;7.00;;;2.42;;
78787;SDS011;68131;52.508;5.502;2023-04-01T04:08:54;6.70;;;2.40;;
78787;SDS011;68131;52.508;5.502;2023-04-01T04:11:24;7.10;;;2.85;;
78787;SDS011;68131;52.508;5.502;2023-04-01T04:13:55;8.20;;;3.08;;
78787;SDS011;68131;52.508;5.502;2023-04-01T04:16:25;7.18;;;3.08;;
78787;SDS011;68131;52.508;5.502;2023-04-01T04:18:58;6.95;;;3.17;;
78787;SDS011;68131;52.508;5.502;2023-04-01T04:21:27;10.52;;;3.83;;
78787;SDS011;68131;52.508;5.502;2023-04-01T04:23:57;7.32;;;3.90;;
78787;SDS011;68131;52.508;5.502;2023-04-01T04:26:31;10.25;;;3.72;;
78787;SDS011;68131;52.508;5.502;2023-04-01T04:29:03;7.30;;;3.00;;
78787;SDS011;68131;52.508;5.502;2023-04-01T04:31:32;10.55;;;3.60;;
78787;SDS011;68131;52.508;5.502;2023-04-01T04:34:01;11.45;;;3.80;;
78787;SDS011;68131;52.508;5.502;2023-04-01T04:36:34;11.48;;;4.72;;
78787;SDS011;68131;52.508;5.502;2023-04-01T04:39:03;7.35;;;3.47;;
78787;SDS011;68131;52.508;5.502;2023-04-01T04:41:34;10.32;;;3.92;;
78787;SDS011;68131;52.508;5.502;2023-04-01T04:44:08;9.15;;;4.00;;
78787;SDS011;68131;52.508;5.502;2023-04-01T04:46:37;10.73;;;4.45;;
78787;SDS011;68131;52.508;5.502;2023-04-01T04:49:14;10.55;;;4.05;;
78787;SDS011;68131;52.508;5.502;2023-04-01T04:51:43;9.57;;;4.20;;
78787;SDS011;68131;52.508;5.502;2023-04-01T04:54:14;7.38;;;3.42;;
78787;SDS011;68131;52.508;5.502;2023-04-01T04:56:53;11.25;;;3.33;;
78787;SDS011;68131;52.508;5.502;2023-04-01T04:59:27;10.20;;;3.80;;
78787;SDS011;68131;52.508;5.502;2023-04-01T05:02:07;10.25;;;3.92;;
78787;SDS011;68131;52.508;5.502;2023-04-01T05:04:36;13.27;;;3.53;;
78787;SDS011;68131;52.508;5.502;2023-04-01T05:07:08;11.05;;;3.72;;
78787;SDS011;68131;52.508;5.502;2023-04-01T05:09:38;10.85;;;4.50;;
78787;SDS011;68131;52.508;5.502;2023-04-01T05:12:07;14.27;;;4.57;;
78787;SDS011;68131;52.508;5.502;2023-04-01T05:15:10;9.95;;;3.95;;
78787;SDS011;68131;52.508;5.502;2023-04-01T05:17:41;11.77;;;3.90;;
78787;SDS011;68131;52.508;5.502;2023-04-01T05:20:11;13.20;;;3.80;;
78787;SDS011;68131;52.508;5.502;2023-04-01T05:22:41;4.53;;;2.65;;
78787;SDS011;68131;52.508;5.502;2023-04-01T05:25:11;9.43;;;3.53;;
78787;SDS011;68131;52.508;5.502;2023-04-01T05:27:40;9.90;;;3.92;;
78787;SDS011;68131;52.508;5.502;2023-04-01T05:30:13;10.57;;;4.82;;
78787;SDS011;68131;52.508;5.502;2023-04-01T05:33:00;8.77;;;4.43;;
78787;SDS011;68131;52.508;5.502;2023-04-01T05:35:29;9.02;;;4.25;;
78787;SDS011;68131;52.508;5.502;2023-04-01T05:37:58;8.43;;;3.90;;
78787;SDS011;68131;52.508;5.502;2023-04-01T05:40:28;5.13;;;2.80;;
78787;SDS011;68131;52.508;5.502;2023-04-01T05:42:58;1.80;;;1.05;;
78787;SDS011;68131;52.508;5.502;2023-04-01T05:45:29;3.40;;;1.80;;
78787;SDS011;68131;52.508;5.502;2023-04-01T05:48:11;4.53;;;1.42;;
78787;SDS011;68131;52.508;5.502;2023-04-01T05:50:41;3.58;;;1.40;;
78787;SDS011;68131;52.508;5.502;2023-04-01T05:53:11;3.25;;;1.50;;
78787;SDS011;68131;52.508;5.502;2023-04-01T05:55:42;2.45;;;1.48;;
78787;SDS011;68131;52.508;5.502;2023-04-01T05:58:12;2.50;;;1.50;;
78787;SDS011;68131;52.508;5.502;2023-04-01T06:00:47;2.42;;;1.13;;
78787;SDS011;68131;52.508;5.502;2023-04-01T06:03:17;2.28;;;1.33;;
78787;SDS011;68131;52.508;5.502;2023-04-01T06:05:46;1.90;;;1.10;;
78787;SDS011;68131;52.508;5.502;2023-04-01T06:08:15;1.48;;;0.82;;
78787;SDS011;68131;52.508;5.502;2023-04-01T06:10:53;1.75;;;1.08;;
78787;SDS011;68131;52.508;5.502;2023-04-01T06:13:33;2.63;;;0.90;;
78787;SDS011;68131;52.508;5.502;2023-04-01T06:16:18;2.42;;;1.17;;
78787;SDS011;68131;52.508;5.502;2023-04-01T06:18:58;1.30;;;0.60;;
78787;SDS011;68131;52.508;5.502;2023-04-01T06:21:46;2.78;;;1.40;;
78787;SDS011;68131;52.508;5.502;2023-04-01T06:24:27;2.45;;;1.17;;
78787;SDS011;68131;52.508;5.502;2023-04-01T06:27:12;2.65;;;1.50;;
78787;SDS011;68131;52.508;5.502;2023-04-01T06:29:51;2.83;;;1.48;;
78787;SDS011;68131;52.508;5.502;2023-04-01T06:32:40;3.47;;;1.38;;
78787;SDS011;68131;52.508;5.502;2023-04-01T06:38:25;3.83;;;1.83;;
78787;SDS011;68131;52.508;5.502;2023-04-01T06:41:13;3.90;;;1.85;;
78787;SDS011;68131;52.508;5.502;2023-04-01T06:44:07;3.10;;;1.42;;
78787;SDS011;68131;52.508;5.502;2023-04-01T06:47:17;3.65;;;2.15;;
78787;SDS011;68131;52.508;5.502;2023-04-01T06:50:20;4.05;;;1.80;;
78787;SDS011;68131;52.508;5.502;2023-04-01T06:53:12;3.22;;;1.40;;
78787;SDS011;68131;52.508;5.502;2023-04-01T06:56:06;5.00;;;2.00;;
78787;SDS011;68131;52.508;5.502;2023-04-01T06:59:02;3.60;;;1.73;;
78787;SDS011;68131;52.508;5.502;2023-04-01T07:01:35;3.45;;;1.60;;
78787;SDS011;68131;52.508;5.502;2023-04-01T07:04:09;3.83;;;1.73;;
78787;SDS011;68131;52.508;5.502;2023-04-01T07:06:46;2.80;;;1.58;;
78787;SDS011;68131;52.508;5.502;2023-04-01T07:09:19;3.05;;;1.60;;
78787;SDS011;68131;52.508;5.502;2023-04-01T07:12:18;3.50;;;1.60;;
78787;SDS011;68131;52.508;5.502;2023-04-01T07:15:13;4.13;;;1.95;;
78787;SDS011;68131;52.508;5.502;2023-04-01T07:17:48;3.95;;;1.90;;
78787;SDS011;68131;52.508;5.502;2023-04-01T07:20:22;4.13;;;2.03;;
78787;SDS011;68131;52.508;5.502;2023-04-01T07:22:58;4.95;;;2.47;;
78787;SDS011;68131;52.508;5.502;2023-04-01T07:25:45;5.95;;;2.65;;
78787;SDS011;68131;52.508;5.502;2023-04-01T07:28:30;3.85;;;2.15;;
78787;SDS011;68131;52.508;5.502;2023-04-01T07:31:11;4.30;;;2.13;;
78787;SDS011;68131;52.508;5.502;2023-04-01T07:33:50;4.43;;;2.50;;
78787;SDS011;68131;52.508;5.502;2023-04-01T07:36:28;18.00;;;8.07;;
78787;SDS011;68131;52.508;5.502;2023-04-01T07:39:07;6.25;;;2.88;;
78787;SDS011;68131;52.508;5.502;2023-04-01T07:41:59;6.78;;;3.10;;
78787;SDS011;68131;52.508;5.502;2023-04-01T07:44:38;7.22;;;4.30;;
78787;SDS011;68131;52.508;5.502;2023-04-01T07:47:25;8.85;;;4.40;;
78787;SDS011;68131;52.508;5.502;2023-04-01T07:50:13;8.35;;;4.47;;
78787;SDS011;68131;52.508;5.502;2023-04-01T07:52:52;8.90;;;4.47;;
78787;SDS011;68131;52.508;5.502;2023-04-01T07:55:32;10.23;;;4.85;;
78787;SDS011;68131;52.508;5.502;2023-04-01T07:58:08;9.18;;;5.22;;
78787;SDS011;68131;52.508;5.502;2023-04-01T08:00:46;8.50;;;4.88;;
78787;SDS011;68131;52.508;5.502;2023-04-01T08:03:31;9.90;;;5.70;;
78787;SDS011;68131;52.508;5.502;2023-04-01T08:06:09;10.40;;;5.63;;
78787;SDS011;68131;52.508;5.502;2023-04-01T08:08:51;8.27;;;4.82;;
78787;SDS011;68131;52.508;5.502;2023-04-01T08:11:54;8.38;;;4.90;;
78787;SDS011;68131;52.508;5.502;2023-04-01T08:14:53;8.90;;;5.05;;
78787;SDS011;68131;52.508;5.502;2023-04-01T08:18:01;6.30;;;3.70;;
78787;SDS011;68131;52.508;5.502;2023-04-01T08:20:35;8.93;;;5.00;;
78787;SDS011;68131;52.508;5.502;2023-04-01T08:23:11;11.23;;;5.35;;
78787;SDS011;68131;52.508;5.502;2023-04-01T08:25:46;10.43;;;5.85;;
78787;SDS011;68131;52.508;5.502;2023-04-01T08:28:24;8.95;;;5.93;;
78787;SDS011;68131;52.508;5.502;2023-04-01T08:31:00;10.50;;;5.35;;
78787;SDS011;68131;52.508;5.502;2023-04-01T08:33:36;9.52;;;5.68;;
78787;SDS011;68131;52.508;5.502;2023-04-01T08:36:10;11.07;;;5.80;;
78787;SDS011;68131;52.508;5.502;2023-04-01T08:38:49;8.52;;;5.13;;
78787;SDS011;68131;52.508;5.502;2023-04-01T08:41:33;8.82;;;5.43;;
78787;SDS011;68131;52.508;5.502;2023-04-01T08:44:56;9.55;;;5.50;;
78787;SDS011;68131;52.508;5.502;2023-04-01T08:47:49;11.20;;;5.90;;
78787;SDS011;68131;52.508;5.502;2023-04-01T08:50:26;9.15;;;5.07;;
78787;SDS011;68131;52.508;5.502;2023-04-01T08:53:20;9.00;;;5.03;;
78787;SDS011;68131;52.508;5.502;2023-04-01T08:56:05;10.25;;;5.30;;
78787;SDS011;68131;52.508;5.502;2023-04-01T08:58:51;9.77;;;5.57;;
78787;SDS011;68131;52.508;5.502;2023-04-01T09:01:47;8.45;;;4.85;;
78787;SDS011;68131;52.508;5.502;2023-04-01T09:05:18;8.35;;;5.20;;
78787;SDS011;68131;52.508;5.502;2023-04-01T09:08:06;9.55;;;4.38;;
78787;SDS011;68131;52.508;5.502;2023-04-01T09:17:01;9.70;;;4.90;;
78787;SDS011;68131;52.508;5.502;2023-04-01T09:19:59;8.00;;;4.50;;
78787;SDS011;68131;52.508;5.502;2023-04-01T09:23:00;6.80;;;4.65;;
78787;SDS011;68131;52.508;5.502;2023-04-01T09:25:59;7.15;;;3.60;;
78787;SDS011;68131;52.508;5.502;2023-04-01T09:28:38;7.40;;;3.88;;
78787;SDS011;68131;52.508;5.502;2023-04-01T09:34:51;5.10;;;2.90;;
78787;SDS011;68131;52.508;5.502;2023-04-01T09:37:34;5.20;;;2.28;;
78787;SDS011;68131;52.508;5.502;2023-04-01T09:40:15;3.38;;;1.75;;
78787;SDS011;68131;52.508;5.502;2023-04-01T09:43:00;1.73;;;1.23;;
78787;SDS011;68131;52.508;5.502;2023-04-01T09:45:47;3.03;;;1.50;;
78787;SDS011;68131;52.508;5.502;2023-04-01T09:48:30;2.05;;;1.40;;
78787;SDS011;68131;52.508;5.502;2023-04-01T09:51:24;2.03;;;1.42;;
78787;SDS011;68131;52.508;5.502;2023-04-01T09:54:03;2.90;;;1.42;;
78787;SDS011;68131;52.508;5.502;2023-04-01T10:09:14;3.70;;;1.80;;
78787;SDS011;68131;52.508;5.502;2023-04-01T10:12:16;2.42;;;1.40;;
78787;SDS011;68131;52.508;5.502;2023-04-01T10:18:40;4.30;;;2.70;;
78787;SDS011;68131;52.508;5.502;2023-04-01T10:21:40;4.18;;;2.47;;
78787;SDS011;68131;52.508;5.502;2023-04-01T10:24:43;4.38;;;3.03;;
78787;SDS011;68131;52.508;5.502;2023-04-01T10:27:38;5.25;;;2.70;;
78787;SDS011;68131;52.508;5.502;2023-04-01T10:34:00;4.95;;;2.90;;
78787;SDS011;68131;52.508;5.502;2023-04-01T10:36:48;6.18;;;3.45;;
78787;SDS011;68131;52.508;5.502;2023-04-01T10:43:08;8.25;;;4.57;;
78787;SDS011;68131;52.508;5.502;2023-04-01T10:46:21;7.45;;;4.82;;
78787;SDS011;68131;52.508;5.502;2023-04-01T10:52:28;9.27;;;4.90;;
78787;SDS011;68131;52.508;5.502;2023-04-01T10:59:21;11.05;;;5.60;;
78787;SDS011;68131;52.508;5.502;2023-04-01T11:06:13;10.00;;;4.70;;
78787;SDS011;68131;52.508;5.502;2023-04-01T11:15:14;8.20;;;4.82;;
78787;SDS011;68131;52.508;5.502;2023-04-01T11:18:02;5.78;;;3.75;;
78787;SDS011;68131;52.508;5.502;2023-04-01T11:20:59;4.93;;;2.90;;
78787;SDS011;68131;52.508;5.502;2023-04-01T11:23:53;6.80;;;4.05;;
78787;SDS011;68131;52.508;5.502;2023-04-01T11:26:52;6.75;;;3.55;;
78787;SDS011;68131;52.508;5.502;2023-04-01T11:32:46;6.63;;;3.92;;
78787;SDS011;68131;52.508;5.502;2023-04-01T11:35:31;7.03;;;4.00;;
78787;SDS011;68131;52.508;5.502;2023-04-01T11:38:17;9.68;;;4.63;;
78787;SDS011;68131;52.508;5.502;2023-04-01T11:41:16;8.40;;;4.28;;
78787;SDS011;68131;52.508;5.502;2023-04-01T11:44:17;9.90;;;4.97;;
78787;SDS011;68131;52.508;5.502;2023-04-01T11:50:02;7.47;;;4.00;;
78787;SDS011;68131;52.508;5.502;2023-04-01T11:52:55;5.40;;;3.13;;
78787;SDS011;68131;52.508;5.502;2023-04-01T11:55:48;9.25;;;5.22;;
78787;SDS011;68131;52.508;5.502;2023-04-01T11:58:37;9.55;;;5.18;;
78787;SDS011;68131;52.508;5.502;2023-04-01T12:01:23;8.55;;;4.95;;
78787;SDS011;68131;52.508;5.502;2023-04-01T12:04:04;11.07;;;5.82;;
78787;SDS011;68131;52.508;5.502;2023-04-01T12:06:44;10.43;;;5.45;;
78787;SDS011;68131;52.508;5.502;2023-04-01T12:09:20;7.57;;;4.03;;
78787;SDS011;68131;52.508;5.502;2023-04-01T12:12:03;10.98;;;5.50;;
78787;SDS011;68131;52.508;5.502;2023-04-01T12:14:43;10.48;;;5.55;;
78787;SDS011;68131;52.508;5.502;2023-04-01T12:17:21;10.32;;;5.75;;
78787;SDS011;68131;52.508;5.502;2023-04-01T12:20:09;7.28;;;4.32;;
78787;SDS011;68131;52.508;5.502;2023-04-01T12:22:57;6.78;;;4.38;;
78787;SDS011;68131;52.508;5.502;2023-04-01T12:25:51;5.10;;;3.65;;
78787;SDS011;68131;52.508;5.502;2023-04-01T12:28:38;6.93;;;4.45;;
78787;SDS011;68131;52.508;5.502;2023-04-01T12:31:23;5.95;;;3.78;;
78787;SDS011;68131;52.508;5.502;2023-04-01T12:34:05;7.82;;;4.07;;
78787;SDS011;68131;52.508;5.502;2023-04-01T12:36:56;5.35;;;3.47;;
78787;SDS011;68131;52.508;5.502;2023-04-01T12:39:44;6.30;;;3.63;;
78787;SDS011;68131;52.508;5.502;2023-04-01T12:42:33;5.57;;;3.05;;
78787;SDS011;68131;52.508;5.502;2023-04-01T12:45:17;3.95;;;2.95;;
78787;SDS011;68131;52.508;5.502;2023-04-01T12:48:08;6.38;;;3.55;;
78787;SDS011;68131;52.508;5.502;2023-04-01T12:51:01;5.07;;;3.42;;
78787;SDS011;68131;52.508;5.502;2023-04-01T12:53:51;5.15;;;3.05;;
78787;SDS011;68131;52.508;5.502;2023-04-01T12:56:42;4.88;;;3.00;;
78787;SDS011;68131;52.508;5.502;2023-04-01T12:59:33;5.07;;;3.20;;
78787;SDS011;68131;52.508;5.502;2023-04-01T13:02:13;4.70;;;3.03;;
78787;SDS011;68131;52.508;5.502;2023-04-01T13:04:56;5.80;;;3.63;;
78787;SDS011;68131;52.508;5.502;2023-04-01T13:07:51;4.50;;;2.47;;
78787;SDS011;68131;52.508;5.502;2023-04-01T13:10:35;5.32;;;3.22;;
78787;SDS011;68131;52.508;5.502;2023-04-01T13:13:15;5.50;;;3.30;;
78787;SDS011;68131;52.508;5.502;2023-04-01T13:16:01;3.78;;;2.80;;
78787;SDS011;68131;52.508;5.502;2023-04-01T13:18:38;5.30;;;2.70;;
78787;SDS011;68131;52.508;5.502;2023-04-01T13:21:16;4.07;;;2.75;;
78787;SDS011;68131;52.508;5.502;2023-04-01T13:23:55;4.15;;;2.80;;
78787;SDS011;68131;52.508;5.502;2023-04-01T13:26:36;7.35;;;4.40;;
78787;SDS011;68131;52.508;5.502;2023-04-01T13:29:15;4.22;;;3.20;;
78787;SDS011;68131;52.508;5.502;2023-04-01T13:31:51;3.80;;;2.83;;
78787;SDS011;68131;52.508;5.502;2023-04-01T13:34:39;4.65;;;2.47;;
78787;SDS011;68131;52.508;5.502;2023-04-01T13:37:26;7.63;;;3.83;;
78787;SDS011;68131;52.508;5.502;2023-04-01T13:40:02;4.90;;;3.28;;
78787;SDS011;68131;52.508;5.502;2023-04-01T13:42:49;5.40;;;3.28;;
78787;SDS011;68131;52.508;5.502;2023-04-01T13:45:22;3.92;;;2.38;;
78787;SDS011;68131;52.508;5.502;2023-04-01T13:48:11;4.78;;;2.80;;
78787;SDS011;68131;52.508;5.502;2023-04-01T13:51:07;3.92;;;2.30;;
78787;SDS011;68131;52.508;5.502;2023-04-01T13:53:56;2.65;;;2.28;;
78787;SDS011;68131;52.508;5.502;2023-04-01T13:56:50;3.88;;;2.30;;
78787;SDS011;68131;52.508;5.502;2023-04-01T13:59:43;3.63;;;2.53;;
78787;SDS011;68131;52.508;5.502;2023-04-01T14:05:24;5.78;;;3.33;;
78787;SDS011;68131;52.508;5.502;2023-04-01T14:08:09;5.32;;;2.92;;
78787;SDS011;68131;52.508;5.502;2023-04-01T14:10:50;4.65;;;3.03;;
78787;SDS011;68131;52.508;5.502;2023-04-01T14:13:27;3.92;;;2.40;;
78787;SDS011;68131;52.508;5.502;2023-04-01T14:16:14;3.00;;;1.85;;
78787;SDS011;68131;52.508;5.502;2023-04-01T14:19:02;4.22;;;2.42;;
78787;SDS011;68131;52.508;5.502;2023-04-01T14:21:41;4.78;;;2.83;;
78787;SDS011;68131;52.508;5.502;2023-04-01T14:27:23;3.67;;;2.28;;
78787;SDS011;68131;52.508;5.502;2023-04-01T14:30:30;5.53;;;2.88;;
78787;SDS011;68131;52.508;5.502;2023-04-01T14:33:20;4.65;;;3.10;;
78787;SDS011;68131;52.508;5.502;2023-04-01T14:35:58;4.82;;;2.75;;
78787;SDS011;68131;52.508;5.502;2023-04-01T14:38:43;5.43;;;2.72;;
78787;SDS011;68131;52.508;5.502;2023-04-01T14:41:20;4.55;;;2.92;;
78787;SDS011;68131;52.508;5.502;2023-04-01T14:44:05;2.58;;;2.10;;
78787;SDS011;68131;52.508;5.502;2023-04-01T14:50:12;5.28;;;2.60;;
78787;SDS011;68131;52.508;5.502;2023-04-01T14:52:46;3.75;;;2.42;;
78787;SDS011;68131;52.508;5.502;2023-04-01T14:55:27;3.40;;;2.22;;
78787;SDS011;68131;52.508;5.502;2023-04-01T14:58:10;2.00;;;1.50;;
78787;SDS011;68131;52.508;5.502;2023-04-01T15:00:47;2.55;;;1.77;;
78787;SDS011;68131;52.508;5.502;2023-04-01T15:03:26;2.53;;;1.77;;
78787;SDS011;68131;52.508;5.502;2023-04-01T15:06:08;2.72;;;1.70;;
78787;SDS011;68131;52.508;5.502;2023-04-01T15:08:56;1.55;;;1.23;;
78787;SDS011;68131;52.508;5.502;2023-04-01T15:11:36;2.17;;;1.60;;
78787;SDS011;68131;52.508;5.502;2023-04-01T15:17:27;2.45;;;1.77;;
78787;SDS011;68131;52.508;5.502;2023-04-01T15:20:12;3.95;;;2.17;;
78787;SDS011;68131;52.508;5.502;2023-04-01T15:22:56;2.75;;;2.08;;
78787;SDS011;68131;52.508;5.502;2023-04-01T15:25:36;1.45;;;1.25;;
78787;SDS011;68131;52.508;5.502;2023-04-01T15:28:16;1.48;;;1.05;;
78787;SDS011;68131;52.508;5.502;2023-04-01T15:30:57;1.88;;;1.50;;
78787;SDS011;68131;52.508;5.502;2023-04-01T15:36:30;2.05;;;1.33;;
78787;SDS011;68131;52.508;5.502;2023-04-01T15:39:12;3.42;;;1.55;;
78787;SDS011;68131;52.508;5.502;2023-04-01T15:41:48;2.13;;;1.20;;
78787;SDS011;68131;52.508;5.502;2023-04-01T15:44:41;2.13;;;1.17;;
78787;SDS011;68131;52.508;5.502;2023-04-01T15:47:35;1.67;;;1.58;;
78787;SDS011;68131;52.508;5.502;2023-04-01T15:50:21;2.03;;;1.33;;
78787;SDS011;68131;52.508;5.502;2023-04-01T15:53:10;1.60;;;1.20;;
78787;SDS011;68131;52.508;5.502;2023-04-01T15:55:52;1.73;;;1.20;;
78787;SDS011;68131;52.508;5.502;2023-04-01T15:58:40;1.35;;;1.10;;
78787;SDS011;68131;52.508;5.502;2023-04-01T16:01:21;0.80;;;0.80;;
78787;SDS011;68131;52.508;5.502;2023-04-01T16:04:05;1.45;;;0.98;;
78787;SDS011;68131;52.508;5.502;2023-04-01T16:06:53;1.20;;;0.85;;
78787;SDS011;68131;52.508;5.502;2023-04-01T16:09:40;1.00;;;0.80;;
78787;SDS011;68131;52.508;5.502;2023-04-01T16:12:28;3.17;;;1.20;;
78787;SDS011;68131;52.508;5.502;2023-04-01T16:15:09;0.95;;;0.88;;
78787;SDS011;68131;52.508;5.502;2023-04-01T16:17:54;3.17;;;1.70;;
78787;SDS011;68131;52.508;5.502;2023-04-01T16:20:40;4.65;;;1.70;;
78787;SDS011;68131;52.508;5.502;2023-04-01T16:23:14;2.63;;;1.98;;
78787;SDS011;68131;52.508;5.502;2023-04-01T16:25:49;3.03;;;1.42;;
78787;SDS011;68131;52.508;5.502;2023-04-01T16:28:27;1.67;;;1.20;;
78787;SDS011;68131;52.508;5.502;2023-04-01T16:31:03;1.95;;;1.50;;
78787;SDS011;68131;52.508;5.502;2023-04-01T16:33:43;4.20;;;1.67;;
78787;SDS011;68131;52.508;5.502;2023-04-01T16:36:22;1.65;;;1.23;;
78787;SDS011;68131;52.508;5.502;2023-04-01T16:39:05;2.25;;;1.17;;
78787;SDS011;68131;52.508;5.502;2023-04-01T16:41:52;4.30;;;2.10;;
78787;SDS011;68131;52.508;5.502;2023-04-01T16:44:46;5.20;;;1.88;;
78787;SDS011;68131;52.508;5.502;2023-04-01T16:47:22;2.45;;;0.98;;
78787;SDS011;68131;52.508;5.502;2023-04-01T16:49:58;2.00;;;1.20;;
78787;SDS011;68131;52.508;5.502;2023-04-01T16:52:42;1.20;;;1.05;;
78787;SDS011;68131;52.508;5.502;2023-04-01T16:55:33;2.83;;;1.42;;
78787;SDS011;68131;52.508;5.502;2023-04-01T16:58:05;2.10;;;1.63;;
78787;SDS011;68131;52.508;5.502;2023-04-01T17:00:40;3.40;;;1.73;;
78787;SDS011;68131;52.508;5.502;2023-04-01T17:03:16;1.63;;;1.17;;
78787;SDS011;68131;52.508;5.502;2023-04-01T17:05:52;2.47;;;1.98;;
78787;SDS011;68131;52.508;5.502;2023-04-01T17:08:38;1.40;;;1.27;;
78787;SDS011;68131;52.508;5.502;2023-04-01T17:11:21;2.95;;;1.30;;
78787;SDS011;68131;52.508;5.502;2023-04-01T17:22:43;1.50;;;1.10;;
78787;SDS011;68131;52.508;5.502;2023-04-01T17:25:20;1.30;;;1.17;;
78787;SDS011;68131;52.508;5.502;2023-04-01T17:28:04;4.75;;;2.63;;
78787;SDS011;68131;52.508;5.502;2023-04-01T17:30:39;1.73;;;1.40;;
78787;SDS011;68131;52.508;5.502;2023-04-01T17:36:36;1.98;;;1.08;;
78787;SDS011;68131;52.508;5.502;2023-04-01T17:39:22;3.05;;;1.90;;
78787;SDS011;68131;52.508;5.502;2023-04-01T17:42:04;3.92;;;2.17;;